sensor_id;sensor_type;location;lat;lon;timestamp;P1;durP1;ratioP1;P2;durP2;ratioP2
54743;SDS011;40639;53.170;6.728;2023-05-07T00:00:57;22.67;;;15.48;;
54743;SDS011;40639;53.170;6.728;2023-05-07T00:03:24;21.98;;;14.55;;
54743;SDS011;40639;53.170;6.728;2023-05-07T00:05:51;24.67;;;15.68;;
54743;SDS011;40639;53.170;6.728;2023-05-07T00:08:20;23.73;;;16.00;;
54743;SDS011;40639;53.170;6.728;2023-05-07T00:10:46;18.45;;;13.75;;
54743;SDS011;40639;53.170;6.728;2023-05-07T00:13:13;24.48;;;15.45;;
54743;SDS011;40639;53.170;6.728;2023-05-07T00:15:39;22.92;;;15.93;;
54743;SDS011;40639;53.170;6.728;2023-05-07T00:18:05;24.42;;;15.52;;
54743;SDS011;40639;53.170;6.728;2023-05-07T00:20:31;22.67;;;15.02;;
54743;SDS011;40639;53.170;6.728;2023-05-07T00:22:57;24.50;;;15.13;;
54743;SDS011;40639;53.170;6.728;2023-05-07T00:25:23;23.92;;;15.20;;
54743;SDS011;40639;53.170;6.728;2023-05-07T00:27:49;23.45;;;15.13;;
54743;SDS011;40639;53.170;6.728;2023-05-07T00:30:16;21.50;;;15.73;;
54743;SDS011;40639;53.170;6.728;2023-05-07T00:32:42;24.05;;;16.58;;
54743;SDS011;40639;53.170;6.728;2023-05-07T00:35:10;23.42;;;15.95;;
54743;SDS011;40639;53.170;6.728;2023-05-07T00:37:37;25.58;;;16.27;;
54743;SDS011;40639;53.170;6.728;2023-05-07T00:40:03;24.17;;;16.45;;
54743;SDS011;40639;53.170;6.728;2023-05-07T00:42:32;23.65;;;15.65;;
54743;SDS011;40639;53.170;6.728;2023-05-07T00:44:58;23.35;;;15.98;;
54743;SDS011;40639;53.170;6.728;2023-05-07T00:47:24;25.38;;;16.45;;
54743;SDS011;40639;53.170;6.728;2023-05-07T00:49:51;26.25;;;17.42;;
54743;SDS011;40639;53.170;6.728;2023-05-07T00:52:17;29.63;;;18.02;;
54743;SDS011;40639;53.170;6.728;2023-05-07T00:54:45;27.35;;;18.02;;
54743;SDS011;40639;53.170;6.728;2023-05-07T00:57:11;23.73;;;17.13;;
54743;SDS011;40639;53.170;6.728;2023-05-07T00:59:38;27.83;;;17.58;;
54743;SDS011;40639;53.170;6.728;2023-05-07T01:02:05;28.00;;;18.27;;
54743;SDS011;40639;53.170;6.728;2023-05-07T01:04:31;26.42;;;18.70;;
54743;SDS011;40639;53.170;6.728;2023-05-07T01:06:58;26.83;;;18.10;;
54743;SDS011;40639;53.170;6.728;2023-05-07T01:09:25;27.38;;;18.15;;
54743;SDS011;40639;53.170;6.728;2023-05-07T01:11:51;27.08;;;18.67;;
54743;SDS011;40639;53.170;6.728;2023-05-07T01:14:18;24.77;;;16.58;;
54743;SDS011;40639;53.170;6.728;2023-05-07T01:16:45;25.23;;;16.75;;
54743;SDS011;40639;53.170;6.728;2023-05-07T01:19:11;25.17;;;16.95;;
54743;SDS011;40639;53.170;6.728;2023-05-07T01:21:39;26.33;;;17.42;;
54743;SDS011;40639;53.170;6.728;2023-05-07T01:24:09;25.38;;;17.50;;
54743;SDS011;40639;53.170;6.728;2023-05-07T01:26:36;26.65;;;17.60;;
54743;SDS011;40639;53.170;6.728;2023-05-07T01:29:02;24.90;;;17.02;;
54743;SDS011;40639;53.170;6.728;2023-05-07T01:31:28;24.65;;;17.85;;
54743;SDS011;40639;53.170;6.728;2023-05-07T01:33:55;26.08;;;17.83;;
54743;SDS011;40639;53.170;6.728;2023-05-07T01:36:22;24.25;;;17.35;;
54743;SDS011;40639;53.170;6.728;2023-05-07T01:38:51;24.50;;;16.67;;
54743;SDS011;40639;53.170;6.728;2023-05-07T01:41:17;28.58;;;18.02;;
54743;SDS011;40639;53.170;6.728;2023-05-07T01:43:44;29.80;;;17.80;;
54743;SDS011;40639;53.170;6.728;2023-05-07T01:46:11;24.20;;;16.83;;
54743;SDS011;40639;53.170;6.728;2023-05-07T01:48:38;27.58;;;18.98;;
54743;SDS011;40639;53.170;6.728;2023-05-07T01:51:05;26.30;;;17.67;;
54743;SDS011;40639;53.170;6.728;2023-05-07T01:53:38;27.77;;;17.63;;
54743;SDS011;40639;53.170;6.728;2023-05-07T01:56:04;27.38;;;17.45;;
54743;SDS011;40639;53.170;6.728;2023-05-07T01:58:31;30.42;;;18.58;;
54743;SDS011;40639;53.170;6.728;2023-05-07T02:00:57;27.88;;;18.50;;
54743;SDS011;40639;53.170;6.728;2023-05-07T02:03:23;31.83;;;17.88;;
54743;SDS011;40639;53.170;6.728;2023-05-07T02:05:49;29.17;;;18.65;;
54743;SDS011;40639;53.170;6.728;2023-05-07T02:08:15;31.08;;;19.17;;
54743;SDS011;40639;53.170;6.728;2023-05-07T02:10:41;30.42;;;19.40;;
54743;SDS011;40639;53.170;6.728;2023-05-07T02:13:07;29.17;;;19.75;;
54743;SDS011;40639;53.170;6.728;2023-05-07T02:15:34;29.38;;;19.60;;
54743;SDS011;40639;53.170;6.728;2023-05-07T02:18:01;29.52;;;18.65;;
54743;SDS011;40639;53.170;6.728;2023-05-07T02:20:27;33.38;;;19.30;;
54743;SDS011;40639;53.170;6.728;2023-05-07T02:22:53;31.80;;;20.42;;
54743;SDS011;40639;53.170;6.728;2023-05-07T02:25:20;26.60;;;18.55;;
54743;SDS011;40639;53.170;6.728;2023-05-07T02:27:46;30.45;;;19.02;;
54743;SDS011;40639;53.170;6.728;2023-05-07T02:30:13;31.02;;;19.48;;
54743;SDS011;40639;53.170;6.728;2023-05-07T02:32:39;29.15;;;19.40;;
54743;SDS011;40639;53.170;6.728;2023-05-07T02:35:05;31.60;;;20.10;;
54743;SDS011;40639;53.170;6.728;2023-05-07T02:37:31;30.27;;;20.33;;
54743;SDS011;40639;53.170;6.728;2023-05-07T02:39:57;31.38;;;19.77;;
54743;SDS011;40639;53.170;6.728;2023-05-07T02:42:23;30.48;;;20.08;;
54743;SDS011;40639;53.170;6.728;2023-05-07T02:44:50;30.67;;;20.55;;
54743;SDS011;40639;53.170;6.728;2023-05-07T02:47:16;32.08;;;19.80;;
54743;SDS011;40639;53.170;6.728;2023-05-07T02:49:42;28.50;;;19.77;;
54743;SDS011;40639;53.170;6.728;2023-05-07T02:52:08;31.88;;;20.10;;
54743;SDS011;40639;53.170;6.728;2023-05-07T02:54:34;29.48;;;19.25;;
54743;SDS011;40639;53.170;6.728;2023-05-07T02:57:00;29.52;;;19.75;;
54743;SDS011;40639;53.170;6.728;2023-05-07T02:59:27;31.67;;;19.38;;
54743;SDS011;40639;53.170;6.728;2023-05-07T03:01:53;28.67;;;19.50;;
54743;SDS011;40639;53.170;6.728;2023-05-07T03:04:19;36.58;;;19.42;;
54743;SDS011;40639;53.170;6.728;2023-05-07T03:06:45;29.38;;;20.73;;
54743;SDS011;40639;53.170;6.728;2023-05-07T03:09:11;30.17;;;19.35;;
54743;SDS011;40639;53.170;6.728;2023-05-07T03:11:37;28.45;;;18.52;;
54743;SDS011;40639;53.170;6.728;2023-05-07T03:14:04;31.40;;;18.70;;
54743;SDS011;40639;53.170;6.728;2023-05-07T03:16:30;33.60;;;19.67;;
54743;SDS011;40639;53.170;6.728;2023-05-07T03:18:56;31.45;;;20.10;;
54743;SDS011;40639;53.170;6.728;2023-05-07T03:21:22;32.05;;;19.95;;
54743;SDS011;40639;53.170;6.728;2023-05-07T03:23:48;31.13;;;20.30;;
54743;SDS011;40639;53.170;6.728;2023-05-07T03:26:15;34.30;;;20.90;;
54743;SDS011;40639;53.170;6.728;2023-05-07T03:28:41;31.90;;;20.27;;
54743;SDS011;40639;53.170;6.728;2023-05-07T03:31:07;29.38;;;19.45;;
54743;SDS011;40639;53.170;6.728;2023-05-07T03:33:33;31.27;;;20.10;;
54743;SDS011;40639;53.170;6.728;2023-05-07T03:36:00;30.60;;;19.52;;
54743;SDS011;40639;53.170;6.728;2023-05-07T03:38:26;27.35;;;18.35;;
54743;SDS011;40639;53.170;6.728;2023-05-07T03:40:52;29.73;;;19.70;;
54743;SDS011;40639;53.170;6.728;2023-05-07T03:43:18;29.83;;;19.67;;
54743;SDS011;40639;53.170;6.728;2023-05-07T03:45:45;28.38;;;18.90;;
54743;SDS011;40639;53.170;6.728;2023-05-07T03:48:11;29.60;;;19.10;;
54743;SDS011;40639;53.170;6.728;2023-05-07T03:50:37;29.60;;;19.80;;
54743;SDS011;40639;53.170;6.728;2023-05-07T03:53:03;28.00;;;19.20;;
54743;SDS011;40639;53.170;6.728;2023-05-07T03:55:29;33.90;;;20.88;;
54743;SDS011;40639;53.170;6.728;2023-05-07T03:57:56;36.70;;;21.40;;
54743;SDS011;40639;53.170;6.728;2023-05-07T04:00:22;32.25;;;20.20;;
54743;SDS011;40639;53.170;6.728;2023-05-07T04:02:48;33.22;;;21.10;;
54743;SDS011;40639;53.170;6.728;2023-05-07T04:05:14;30.02;;;20.10;;
54743;SDS011;40639;53.170;6.728;2023-05-07T04:07:41;31.05;;;19.55;;
54743;SDS011;40639;53.170;6.728;2023-05-07T04:10:07;27.70;;;18.67;;
54743;SDS011;40639;53.170;6.728;2023-05-07T04:12:34;32.88;;;19.67;;
54743;SDS011;40639;53.170;6.728;2023-05-07T04:15:00;29.25;;;19.40;;
54743;SDS011;40639;53.170;6.728;2023-05-07T04:17:26;27.13;;;16.63;;
54743;SDS011;40639;53.170;6.728;2023-05-07T04:19:52;26.90;;;18.10;;
54743;SDS011;40639;53.170;6.728;2023-05-07T04:22:18;29.58;;;18.60;;
54743;SDS011;40639;53.170;6.728;2023-05-07T04:24:44;26.30;;;17.98;;
54743;SDS011;40639;53.170;6.728;2023-05-07T04:27:10;26.70;;;18.13;;
54743;SDS011;40639;53.170;6.728;2023-05-07T04:29:37;28.65;;;18.35;;
54743;SDS011;40639;53.170;6.728;2023-05-07T04:32:07;27.08;;;17.45;;
54743;SDS011;40639;53.170;6.728;2023-05-07T04:34:33;27.02;;;17.38;;
54743;SDS011;40639;53.170;6.728;2023-05-07T04:36:59;30.23;;;19.25;;
54743;SDS011;40639;53.170;6.728;2023-05-07T04:39:25;27.10;;;18.73;;
54743;SDS011;40639;53.170;6.728;2023-05-07T04:41:51;27.77;;;17.73;;
54743;SDS011;40639;53.170;6.728;2023-05-07T04:44:17;26.13;;;17.52;;
54743;SDS011;40639;53.170;6.728;2023-05-07T04:46:43;26.27;;;17.00;;
54743;SDS011;40639;53.170;6.728;2023-05-07T04:49:09;25.30;;;16.73;;
54743;SDS011;40639;53.170;6.728;2023-05-07T04:51:36;28.02;;;17.88;;
54743;SDS011;40639;53.170;6.728;2023-05-07T04:54:03;25.00;;;16.67;;
54743;SDS011;40639;53.170;6.728;2023-05-07T04:56:29;24.75;;;16.83;;
54743;SDS011;40639;53.170;6.728;2023-05-07T04:58:55;23.95;;;16.55;;
54743;SDS011;40639;53.170;6.728;2023-05-07T05:01:21;27.50;;;16.95;;
54743;SDS011;40639;53.170;6.728;2023-05-07T05:03:47;23.20;;;15.57;;
54743;SDS011;40639;53.170;6.728;2023-05-07T05:06:14;25.73;;;16.83;;
54743;SDS011;40639;53.170;6.728;2023-05-07T05:08:40;25.58;;;16.70;;
54743;SDS011;40639;53.170;6.728;2023-05-07T05:11:06;25.35;;;16.88;;
54743;SDS011;40639;53.170;6.728;2023-05-07T05:13:32;25.95;;;16.90;;
54743;SDS011;40639;53.170;6.728;2023-05-07T05:15:58;25.90;;;16.40;;
54743;SDS011;40639;53.170;6.728;2023-05-07T05:18:24;22.23;;;15.05;;
54743;SDS011;40639;53.170;6.728;2023-05-07T05:20:51;26.95;;;16.67;;
54743;SDS011;40639;53.170;6.728;2023-05-07T05:23:17;23.85;;;16.17;;
54743;SDS011;40639;53.170;6.728;2023-05-07T05:25:43;23.15;;;15.50;;
54743;SDS011;40639;53.170;6.728;2023-05-07T05:28:09;26.00;;;16.88;;
54743;SDS011;40639;53.170;6.728;2023-05-07T05:30:35;25.27;;;15.93;;
54743;SDS011;40639;53.170;6.728;2023-05-07T05:33:02;23.35;;;17.00;;
54743;SDS011;40639;53.170;6.728;2023-05-07T05:35:29;22.73;;;15.50;;
54743;SDS011;40639;53.170;6.728;2023-05-07T05:37:55;23.00;;;15.57;;
54743;SDS011;40639;53.170;6.728;2023-05-07T05:40:21;23.25;;;15.00;;
54743;SDS011;40639;53.170;6.728;2023-05-07T05:42:47;24.90;;;14.52;;
54743;SDS011;40639;53.170;6.728;2023-05-07T05:45:13;22.50;;;15.40;;
54743;SDS011;40639;53.170;6.728;2023-05-07T05:47:40;26.02;;;15.80;;
54743;SDS011;40639;53.170;6.728;2023-05-07T05:50:06;22.58;;;14.55;;
54743;SDS011;40639;53.170;6.728;2023-05-07T05:52:33;22.67;;;15.10;;
54743;SDS011;40639;53.170;6.728;2023-05-07T05:54:59;21.85;;;15.38;;
54743;SDS011;40639;53.170;6.728;2023-05-07T05:57:25;20.13;;;14.25;;
54743;SDS011;40639;53.170;6.728;2023-05-07T05:59:51;21.38;;;15.00;;
54743;SDS011;40639;53.170;6.728;2023-05-07T06:02:17;20.25;;;14.13;;
54743;SDS011;40639;53.170;6.728;2023-05-07T06:04:43;26.65;;;15.50;;
54743;SDS011;40639;53.170;6.728;2023-05-07T06:07:10;23.52;;;16.05;;
54743;SDS011;40639;53.170;6.728;2023-05-07T06:09:36;22.77;;;14.57;;
54743;SDS011;40639;53.170;6.728;2023-05-07T06:12:02;22.77;;;14.85;;
54743;SDS011;40639;53.170;6.728;2023-05-07T06:14:28;22.25;;;15.75;;
54743;SDS011;40639;53.170;6.728;2023-05-07T06:16:58;21.17;;;14.57;;
54743;SDS011;40639;53.170;6.728;2023-05-07T06:19:24;22.33;;;15.00;;
54743;SDS011;40639;53.170;6.728;2023-05-07T06:21:51;22.52;;;16.08;;
54743;SDS011;40639;53.170;6.728;2023-05-07T06:24:17;22.35;;;15.68;;
54743;SDS011;40639;53.170;6.728;2023-05-07T06:26:43;21.48;;;15.15;;
54743;SDS011;40639;53.170;6.728;2023-05-07T06:29:10;22.23;;;15.43;;
54743;SDS011;40639;53.170;6.728;2023-05-07T06:31:36;22.92;;;16.20;;
54743;SDS011;40639;53.170;6.728;2023-05-07T06:34:02;23.60;;;16.00;;
54743;SDS011;40639;53.170;6.728;2023-05-07T06:36:28;25.45;;;16.67;;
54743;SDS011;40639;53.170;6.728;2023-05-07T06:38:54;20.00;;;14.68;;
54743;SDS011;40639;53.170;6.728;2023-05-07T06:41:20;23.00;;;15.52;;
54743;SDS011;40639;53.170;6.728;2023-05-07T06:43:47;22.20;;;15.50;;
54743;SDS011;40639;53.170;6.728;2023-05-07T06:46:13;23.52;;;15.52;;
54743;SDS011;40639;53.170;6.728;2023-05-07T06:48:40;21.75;;;14.98;;
54743;SDS011;40639;53.170;6.728;2023-05-07T06:51:06;22.10;;;14.77;;
54743;SDS011;40639;53.170;6.728;2023-05-07T06:53:32;23.33;;;15.77;;
54743;SDS011;40639;53.170;6.728;2023-05-07T06:55:58;21.80;;;15.27;;
54743;SDS011;40639;53.170;6.728;2023-05-07T06:58:24;20.77;;;14.48;;
54743;SDS011;40639;53.170;6.728;2023-05-07T07:00:50;24.55;;;15.85;;
54743;SDS011;40639;53.170;6.728;2023-05-07T07:03:16;22.58;;;14.45;;
54743;SDS011;40639;53.170;6.728;2023-05-07T07:05:42;22.92;;;15.65;;
54743;SDS011;40639;53.170;6.728;2023-05-07T07:08:09;23.27;;;15.18;;
54743;SDS011;40639;53.170;6.728;2023-05-07T07:10:35;23.60;;;15.07;;
54743;SDS011;40639;53.170;6.728;2023-05-07T07:13:01;25.27;;;15.70;;
54743;SDS011;40639;53.170;6.728;2023-05-07T07:15:27;21.92;;;14.85;;
54743;SDS011;40639;53.170;6.728;2023-05-07T07:17:53;19.95;;;13.95;;
54743;SDS011;40639;53.170;6.728;2023-05-07T07:20:19;23.70;;;14.57;;
54743;SDS011;40639;53.170;6.728;2023-05-07T07:22:45;22.02;;;14.75;;
54743;SDS011;40639;53.170;6.728;2023-05-07T07:25:12;24.85;;;15.98;;
54743;SDS011;40639;53.170;6.728;2023-05-07T07:27:38;20.52;;;14.40;;
54743;SDS011;40639;53.170;6.728;2023-05-07T07:30:05;22.27;;;14.65;;
54743;SDS011;40639;53.170;6.728;2023-05-07T07:32:31;23.08;;;14.88;;
54743;SDS011;40639;53.170;6.728;2023-05-07T07:34:58;21.73;;;14.18;;
54743;SDS011;40639;53.170;6.728;2023-05-07T07:37:24;24.02;;;15.85;;
54743;SDS011;40639;53.170;6.728;2023-05-07T07:39:50;22.50;;;14.70;;
54743;SDS011;40639;53.170;6.728;2023-05-07T07:42:17;22.15;;;14.50;;
54743;SDS011;40639;53.170;6.728;2023-05-07T07:44:43;23.85;;;15.80;;
54743;SDS011;40639;53.170;6.728;2023-05-07T07:47:09;22.60;;;15.30;;
54743;SDS011;40639;53.170;6.728;2023-05-07T07:49:36;21.85;;;14.63;;
54743;SDS011;40639;53.170;6.728;2023-05-07T07:52:02;21.10;;;14.73;;
54743;SDS011;40639;53.170;6.728;2023-05-07T07:54:28;22.02;;;15.18;;
54743;SDS011;40639;53.170;6.728;2023-05-07T07:56:55;24.15;;;15.45;;
54743;SDS011;40639;53.170;6.728;2023-05-07T07:59:21;24.02;;;15.77;;
54743;SDS011;40639;53.170;6.728;2023-05-07T08:01:48;22.88;;;15.75;;
54743;SDS011;40639;53.170;6.728;2023-05-07T08:04:15;23.70;;;15.32;;
54743;SDS011;40639;53.170;6.728;2023-05-07T08:06:41;24.55;;;15.60;;
54743;SDS011;40639;53.170;6.728;2023-05-07T08:09:07;25.75;;;16.25;;
54743;SDS011;40639;53.170;6.728;2023-05-07T08:11:34;21.50;;;14.57;;
54743;SDS011;40639;53.170;6.728;2023-05-07T08:14:00;21.67;;;15.13;;
54743;SDS011;40639;53.170;6.728;2023-05-07T08:16:26;22.88;;;15.38;;
54743;SDS011;40639;53.170;6.728;2023-05-07T08:18:53;24.88;;;15.40;;
54743;SDS011;40639;53.170;6.728;2023-05-07T08:21:19;22.77;;;14.90;;
54743;SDS011;40639;53.170;6.728;2023-05-07T08:23:45;23.83;;;14.15;;
54743;SDS011;40639;53.170;6.728;2023-05-07T08:26:11;20.73;;;14.43;;
54743;SDS011;40639;53.170;6.728;2023-05-07T08:28:38;22.00;;;14.68;;
54743;SDS011;40639;53.170;6.728;2023-05-07T08:31:07;22.45;;;14.70;;
54743;SDS011;40639;53.170;6.728;2023-05-07T08:33:34;22.95;;;14.55;;
54743;SDS011;40639;53.170;6.728;2023-05-07T08:36:00;25.67;;;15.80;;
54743;SDS011;40639;53.170;6.728;2023-05-07T08:38:26;22.83;;;15.82;;
54743;SDS011;40639;53.170;6.728;2023-05-07T08:40:52;23.23;;;14.90;;
54743;SDS011;40639;53.170;6.728;2023-05-07T08:43:18;23.58;;;15.38;;
54743;SDS011;40639;53.170;6.728;2023-05-07T08:45:45;21.58;;;14.73;;
54743;SDS011;40639;53.170;6.728;2023-05-07T08:48:14;22.08;;;14.63;;
54743;SDS011;40639;53.170;6.728;2023-05-07T08:50:40;21.88;;;14.57;;
54743;SDS011;40639;53.170;6.728;2023-05-07T08:53:06;20.77;;;13.63;;
54743;SDS011;40639;53.170;6.728;2023-05-07T08:55:39;22.38;;;15.63;;
54743;SDS011;40639;53.170;6.728;2023-05-07T08:58:05;23.58;;;15.00;;
54743;SDS011;40639;53.170;6.728;2023-05-07T09:00:50;24.13;;;15.30;;
54743;SDS011;40639;53.170;6.728;2023-05-07T09:03:20;20.90;;;13.68;;
54743;SDS011;40639;53.170;6.728;2023-05-07T09:05:46;20.80;;;13.95;;
54743;SDS011;40639;53.170;6.728;2023-05-07T09:08:14;23.75;;;15.07;;
54743;SDS011;40639;53.170;6.728;2023-05-07T09:10:41;21.98;;;14.55;;
54743;SDS011;40639;53.170;6.728;2023-05-07T09:13:07;21.67;;;14.65;;
54743;SDS011;40639;53.170;6.728;2023-05-07T09:15:34;21.60;;;14.02;;
54743;SDS011;40639;53.170;6.728;2023-05-07T09:18:00;19.42;;;14.02;;
54743;SDS011;40639;53.170;6.728;2023-05-07T09:20:26;22.45;;;14.82;;
54743;SDS011;40639;53.170;6.728;2023-05-07T09:22:54;18.48;;;13.00;;
54743;SDS011;40639;53.170;6.728;2023-05-07T09:25:27;20.88;;;14.07;;
54743;SDS011;40639;53.170;6.728;2023-05-07T09:27:53;19.35;;;13.90;;
54743;SDS011;40639;53.170;6.728;2023-05-07T09:30:19;22.33;;;14.60;;
54743;SDS011;40639;53.170;6.728;2023-05-07T09:32:46;21.45;;;13.98;;
54743;SDS011;40639;53.170;6.728;2023-05-07T09:35:15;21.20;;;14.32;;
54743;SDS011;40639;53.170;6.728;2023-05-07T09:37:46;21.25;;;13.90;;
54743;SDS011;40639;53.170;6.728;2023-05-07T09:42:48;19.90;;;13.23;;
54743;SDS011;40639;53.170;6.728;2023-05-07T09:45:15;17.60;;;12.85;;
54743;SDS011;40639;53.170;6.728;2023-05-07T09:47:42;21.75;;;14.23;;
54743;SDS011;40639;53.170;6.728;2023-05-07T09:50:13;20.13;;;13.20;;
54743;SDS011;40639;53.170;6.728;2023-05-07T09:52:41;19.15;;;13.10;;
54743;SDS011;40639;53.170;6.728;2023-05-07T09:55:08;17.95;;;12.90;;
54743;SDS011;40639;53.170;6.728;2023-05-07T09:57:35;18.25;;;13.35;;
54743;SDS011;40639;53.170;6.728;2023-05-07T10:00:02;17.38;;;12.20;;
54743;SDS011;40639;53.170;6.728;2023-05-07T10:02:33;19.13;;;13.55;;
54743;SDS011;40639;53.170;6.728;2023-05-07T10:05:01;17.35;;;12.68;;
54743;SDS011;40639;53.170;6.728;2023-05-07T10:07:28;17.20;;;12.82;;
54743;SDS011;40639;53.170;6.728;2023-05-07T10:09:55;16.80;;;12.52;;
54743;SDS011;40639;53.170;6.728;2023-05-07T10:12:21;20.77;;;14.13;;
54743;SDS011;40639;53.170;6.728;2023-05-07T10:14:47;19.02;;;13.27;;
54743;SDS011;40639;53.170;6.728;2023-05-07T10:17:15;17.98;;;12.68;;
54743;SDS011;40639;53.170;6.728;2023-05-07T10:19:54;16.30;;;11.45;;
54743;SDS011;40639;53.170;6.728;2023-05-07T10:22:21;17.08;;;12.73;;
54743;SDS011;40639;53.170;6.728;2023-05-07T10:24:48;15.65;;;11.50;;
54743;SDS011;40639;53.170;6.728;2023-05-07T10:27:14;17.27;;;11.80;;
54743;SDS011;40639;53.170;6.728;2023-05-07T10:32:18;16.42;;;12.55;;
54743;SDS011;40639;53.170;6.728;2023-05-07T10:34:47;17.38;;;12.48;;
54743;SDS011;40639;53.170;6.728;2023-05-07T10:37:14;16.02;;;12.30;;
54743;SDS011;40639;53.170;6.728;2023-05-07T10:39:41;16.35;;;11.85;;
54743;SDS011;40639;53.170;6.728;2023-05-07T10:42:07;16.80;;;12.35;;
54743;SDS011;40639;53.170;6.728;2023-05-07T10:44:34;17.55;;;12.85;;
54743;SDS011;40639;53.170;6.728;2023-05-07T10:47:16;17.67;;;12.23;;
54743;SDS011;40639;53.170;6.728;2023-05-07T10:52:20;16.63;;;11.82;;
54743;SDS011;40639;53.170;6.728;2023-05-07T10:54:46;16.30;;;11.85;;
54743;SDS011;40639;53.170;6.728;2023-05-07T10:59:57;17.40;;;12.48;;
54743;SDS011;40639;53.170;6.728;2023-05-07T11:02:23;16.02;;;11.05;;
54743;SDS011;40639;53.170;6.728;2023-05-07T11:05:22;17.38;;;12.02;;
54743;SDS011;40639;53.170;6.728;2023-05-07T11:07:59;16.33;;;11.95;;
54743;SDS011;40639;53.170;6.728;2023-05-07T11:13:10;16.13;;;11.82;;
54743;SDS011;40639;53.170;6.728;2023-05-07T11:15:37;16.48;;;12.18;;
54743;SDS011;40639;53.170;6.728;2023-05-07T11:18:03;12.90;;;10.50;;
54743;SDS011;40639;53.170;6.728;2023-05-07T11:20:46;16.67;;;11.85;;
54743;SDS011;40639;53.170;6.728;2023-05-07T11:25:58;14.13;;;10.40;;
54743;SDS011;40639;53.170;6.728;2023-05-07T11:28:24;14.63;;;11.48;;
54743;SDS011;40639;53.170;6.728;2023-05-07T11:30:51;15.50;;;11.95;;
54743;SDS011;40639;53.170;6.728;2023-05-07T11:33:17;13.75;;;11.10;;
54743;SDS011;40639;53.170;6.728;2023-05-07T11:35:44;14.07;;;11.18;;
54743;SDS011;40639;53.170;6.728;2023-05-07T11:38:11;15.05;;;11.32;;
54743;SDS011;40639;53.170;6.728;2023-05-07T11:40:54;13.35;;;10.45;;
54743;SDS011;40639;53.170;6.728;2023-05-07T11:43:20;14.27;;;10.90;;
54743;SDS011;40639;53.170;6.728;2023-05-07T11:45:46;14.75;;;10.95;;
54743;SDS011;40639;53.170;6.728;2023-05-07T11:48:13;12.10;;;10.10;;
54743;SDS011;40639;53.170;6.728;2023-05-07T11:53:25;14.27;;;10.02;;
54743;SDS011;40639;53.170;6.728;2023-05-07T11:55:52;13.77;;;11.13;;
54743;SDS011;40639;53.170;6.728;2023-05-07T11:58:21;13.88;;;10.52;;
54743;SDS011;40639;53.170;6.728;2023-05-07T12:00:48;13.90;;;10.10;;
54743;SDS011;40639;53.170;6.728;2023-05-07T12:03:15;13.65;;;10.60;;
54743;SDS011;40639;53.170;6.728;2023-05-07T12:05:41;14.15;;;11.00;;
54743;SDS011;40639;53.170;6.728;2023-05-07T12:08:07;14.10;;;10.50;;
54743;SDS011;40639;53.170;6.728;2023-05-07T12:10:33;13.20;;;10.30;;
54743;SDS011;40639;53.170;6.728;2023-05-07T12:13:00;12.43;;;10.52;;
54743;SDS011;40639;53.170;6.728;2023-05-07T12:15:26;12.15;;;10.00;;
54743;SDS011;40639;53.170;6.728;2023-05-07T12:17:53;13.90;;;11.30;;
54743;SDS011;40639;53.170;6.728;2023-05-07T12:20:19;13.60;;;10.68;;
54743;SDS011;40639;53.170;6.728;2023-05-07T12:22:45;14.93;;;10.82;;
54743;SDS011;40639;53.170;6.728;2023-05-07T12:25:12;14.80;;;11.07;;
54743;SDS011;40639;53.170;6.728;2023-05-07T12:27:44;13.95;;;10.65;;
54743;SDS011;40639;53.170;6.728;2023-05-07T12:30:10;13.30;;;10.35;;
54743;SDS011;40639;53.170;6.728;2023-05-07T12:32:37;11.95;;;9.90;;
54743;SDS011;40639;53.170;6.728;2023-05-07T12:35:03;13.23;;;10.15;;
54743;SDS011;40639;53.170;6.728;2023-05-07T12:37:31;13.02;;;10.98;;
54743;SDS011;40639;53.170;6.728;2023-05-07T12:40:08;12.00;;;10.05;;
54743;SDS011;40639;53.170;6.728;2023-05-07T12:42:38;14.00;;;11.70;;
54743;SDS011;40639;53.170;6.728;2023-05-07T12:45:08;13.90;;;11.05;;
54743;SDS011;40639;53.170;6.728;2023-05-07T12:47:34;13.95;;;11.18;;
54743;SDS011;40639;53.170;6.728;2023-05-07T12:50:04;12.85;;;10.93;;
54743;SDS011;40639;53.170;6.728;2023-05-07T12:52:31;12.95;;;10.90;;
54743;SDS011;40639;53.170;6.728;2023-05-07T12:54:57;13.40;;;10.13;;
54743;SDS011;40639;53.170;6.728;2023-05-07T12:57:30;11.85;;;10.35;;
54743;SDS011;40639;53.170;6.728;2023-05-07T12:59:57;11.75;;;9.77;;
54743;SDS011;40639;53.170;6.728;2023-05-07T13:02:31;11.77;;;10.13;;
54743;SDS011;40639;53.170;6.728;2023-05-07T13:04:57;12.95;;;10.52;;
54743;SDS011;40639;53.170;6.728;2023-05-07T13:07:24;12.65;;;10.48;;
54743;SDS011;40639;53.170;6.728;2023-05-07T13:09:50;12.27;;;10.40;;
54743;SDS011;40639;53.170;6.728;2023-05-07T13:12:17;11.30;;;10.00;;
54743;SDS011;40639;53.170;6.728;2023-05-07T13:14:43;11.50;;;10.27;;
54743;SDS011;40639;53.170;6.728;2023-05-07T13:17:09;12.30;;;10.07;;
54743;SDS011;40639;53.170;6.728;2023-05-07T13:19:35;12.07;;;10.07;;
54743;SDS011;40639;53.170;6.728;2023-05-07T13:22:03;12.55;;;10.77;;
54743;SDS011;40639;53.170;6.728;2023-05-07T13:24:29;11.63;;;9.70;;
54743;SDS011;40639;53.170;6.728;2023-05-07T13:26:55;10.95;;;9.02;;
54743;SDS011;40639;53.170;6.728;2023-05-07T13:29:21;10.43;;;8.70;;
54743;SDS011;40639;53.170;6.728;2023-05-07T13:31:55;10.75;;;8.55;;
54743;SDS011;40639;53.170;6.728;2023-05-07T13:34:21;12.23;;;10.35;;
54743;SDS011;40639;53.170;6.728;2023-05-07T13:36:47;11.23;;;9.90;;
54743;SDS011;40639;53.170;6.728;2023-05-07T13:39:13;11.10;;;9.95;;
54743;SDS011;40639;53.170;6.728;2023-05-07T13:41:39;12.82;;;10.43;;
54743;SDS011;40639;53.170;6.728;2023-05-07T13:44:05;11.25;;;10.05;;
54743;SDS011;40639;53.170;6.728;2023-05-07T13:46:32;10.77;;;9.65;;
54743;SDS011;40639;53.170;6.728;2023-05-07T13:48:58;11.45;;;9.32;;
54743;SDS011;40639;53.170;6.728;2023-05-07T13:51:24;10.02;;;8.63;;
54743;SDS011;40639;53.170;6.728;2023-05-07T13:53:51;9.98;;;8.90;;
54743;SDS011;40639;53.170;6.728;2023-05-07T13:56:20;10.57;;;9.48;;
54743;SDS011;40639;53.170;6.728;2023-05-07T13:58:46;10.57;;;9.50;;
54743;SDS011;40639;53.170;6.728;2023-05-07T14:01:12;9.23;;;8.00;;
54743;SDS011;40639;53.170;6.728;2023-05-07T14:03:39;10.90;;;9.27;;
54743;SDS011;40639;53.170;6.728;2023-05-07T14:06:05;9.93;;;8.85;;
54743;SDS011;40639;53.170;6.728;2023-05-07T14:08:31;10.18;;;9.07;;
54743;SDS011;40639;53.170;6.728;2023-05-07T14:10:57;9.98;;;8.70;;
54743;SDS011;40639;53.170;6.728;2023-05-07T14:13:25;10.25;;;8.73;;
54743;SDS011;40639;53.170;6.728;2023-05-07T14:15:51;10.07;;;8.90;;
54743;SDS011;40639;53.170;6.728;2023-05-07T14:18:17;10.75;;;9.10;;
54743;SDS011;40639;53.170;6.728;2023-05-07T14:20:44;11.38;;;8.50;;
54743;SDS011;40639;53.170;6.728;2023-05-07T14:23:11;9.98;;;8.60;;
54743;SDS011;40639;53.170;6.728;2023-05-07T14:25:37;9.75;;;8.52;;
54743;SDS011;40639;53.170;6.728;2023-05-07T14:28:04;11.18;;;10.07;;
54743;SDS011;40639;53.170;6.728;2023-05-07T14:30:30;10.95;;;9.73;;
54743;SDS011;40639;53.170;6.728;2023-05-07T14:32:56;11.23;;;9.60;;
54743;SDS011;40639;53.170;6.728;2023-05-07T14:35:22;10.32;;;8.63;;
54743;SDS011;40639;53.170;6.728;2023-05-07T14:37:49;11.93;;;8.88;;
54743;SDS011;40639;53.170;6.728;2023-05-07T14:40:15;10.80;;;9.27;;